sensor_id;sensor_type;location;lat;lon;timestamp;temperature;humidity
61765;DHT22;50188;48.114;-1.388;2022-08-01T00:00:50;21.60;81.80
61765;DHT22;50188;48.114;-1.388;2022-08-01T00:03:16;21.50;82.00
61765;DHT22;50188;48.114;-1.388;2022-08-01T00:05:42;21.50;81.90
61765;DHT22;50188;48.114;-1.388;2022-08-01T00:08:09;21.60;81.70
61765;DHT22;50188;48.114;-1.388;2022-08-01T00:10:35;21.60;81.50
61765;DHT22;50188;48.114;-1.388;2022-08-01T00:13:01;21.60;81.30
61765;DHT22;50188;48.114;-1.388;2022-08-01T00:15:27;21.60;81.20
61765;DHT22;50188;48.114;-1.388;2022-08-01T00:17:53;21.70;81.10
61765;DHT22;50188;48.114;-1.388;2022-08-01T00:20:19;21.70;80.80
61765;DHT22;50188;48.114;-1.388;2022-08-01T00:22:45;21.80;80.70
61765;DHT22;50188;48.114;-1.388;2022-08-01T00:25:11;21.90;80.50
61765;DHT22;50188;48.114;-1.388;2022-08-01T00:27:37;21.90;80.30
61765;DHT22;50188;48.114;-1.388;2022-08-01T00:30:03;21.80;80.50
61765;DHT22;50188;48.114;-1.388;2022-08-01T00:32:32;21.80;80.40
61765;DHT22;50188;48.114;-1.388;2022-08-01T00:34:58;21.80;80.40
61765;DHT22;50188;48.114;-1.388;2022-08-01T00:37:27;21.80;80.60
61765;DHT22;50188;48.114;-1.388;2022-08-01T00:39:53;21.90;80.40
61765;DHT22;50188;48.114;-1.388;2022-08-01T00:42:19;21.80;80.20
61765;DHT22;50188;48.114;-1.388;2022-08-01T00:44:46;21.70;80.50
61765;DHT22;50188;48.114;-1.388;2022-08-01T00:47:12;21.80;80.60
61765;DHT22;50188;48.114;-1.388;2022-08-01T00:49:38;21.80;80.50
61765;DHT22;50188;48.114;-1.388;2022-08-01T00:52:08;21.70;80.70
61765;DHT22;50188;48.114;-1.388;2022-08-01T00:54:35;21.70;80.70
61765;DHT22;50188;48.114;-1.388;2022-08-01T00:57:02;21.70;80.60
61765;DHT22;50188;48.114;-1.388;2022-08-01T00:59:28;21.80;80.30
61765;DHT22;50188;48.114;-1.388;2022-08-01T01:01:55;21.80;80.30
61765;DHT22;50188;48.114;-1.388;2022-08-01T01:04:21;21.80;80.20
61765;DHT22;50188;48.114;-1.388;2022-08-01T01:07:09;21.90;80.00
61765;DHT22;50188;48.114;-1.388;2022-08-01T01:09:56;21.90;79.90
61765;DHT22;50188;48.114;-1.388;2022-08-01T01:12:48;21.90;79.70
61765;DHT22;50188;48.114;-1.388;2022-08-01T01:15:34;22.00;79.60
61765;DHT22;50188;48.114;-1.388;2022-08-01T01:18:07;22.00;79.40
61765;DHT22;50188;48.114;-1.388;2022-08-01T01:20:37;22.00;79.30
61765;DHT22;50188;48.114;-1.388;2022-08-01T01:23:21;21.90;79.20
61765;DHT22;50188;48.114;-1.388;2022-08-01T01:26:17;21.90;79.40
61765;DHT22;50188;48.114;-1.388;2022-08-01T01:32:03;21.80;80.00
61765;DHT22;50188;48.114;-1.388;2022-08-01T01:34:33;21.70;80.20
61765;DHT22;50188;48.114;-1.388;2022-08-01T01:37:02;21.70;80.40
61765;DHT22;50188;48.114;-1.388;2022-08-01T01:39:30;21.70;80.50
61765;DHT22;50188;48.114;-1.388;2022-08-01T01:41:58;21.50;80.60
61765;DHT22;50188;48.114;-1.388;2022-08-01T01:44:27;21.50;80.80
61765;DHT22;50188;48.114;-1.388;2022-08-01T01:46:53;21.50;81.00
61765;DHT22;50188;48.114;-1.388;2022-08-01T01:49:25;21.60;80.70
61765;DHT22;50188;48.114;-1.388;2022-08-01T01:51:54;21.40;81.20
61765;DHT22;50188;48.114;-1.388;2022-08-01T01:54:22;21.30;81.40
61765;DHT22;50188;48.114;-1.388;2022-08-01T01:56:50;21.30;81.70
61765;DHT22;50188;48.114;-1.388;2022-08-01T01:59:27;21.20;81.80
61765;DHT22;50188;48.114;-1.388;2022-08-01T02:01:56;21.30;81.70
61765;DHT22;50188;48.114;-1.388;2022-08-01T02:04:25;21.20;81.80
61765;DHT22;50188;48.114;-1.388;2022-08-01T02:06:53;21.30;81.80
61765;DHT22;50188;48.114;-1.388;2022-08-01T02:09:21;21.20;81.90
61765;DHT22;50188;48.114;-1.388;2022-08-01T02:11:48;21.30;81.70
61765;DHT22;50188;48.114;-1.388;2022-08-01T02:14:17;21.10;81.90
61765;DHT22;50188;48.114;-1.388;2022-08-01T02:16:47;21.00;82.40
61765;DHT22;50188;48.114;-1.388;2022-08-01T02:19:15;21.00;82.90
61765;DHT22;50188;48.114;-1.388;2022-08-01T02:22:00;20.90;83.10
61765;DHT22;50188;48.114;-1.388;2022-08-01T02:24:54;20.90;83.10
61765;DHT22;50188;48.114;-1.388;2022-08-01T02:27:25;21.00;83.20
61765;DHT22;50188;48.114;-1.388;2022-08-01T02:30:03;21.00;83.00
61765;DHT22;50188;48.114;-1.388;2022-08-01T02:32:34;21.10;82.60
61765;DHT22;50188;48.114;-1.388;2022-08-01T02:35:02;20.90;82.60
61765;DHT22;50188;48.114;-1.388;2022-08-01T02:37:34;20.90;82.40
61765;DHT22;50188;48.114;-1.388;2022-08-01T02:40:02;20.90;82.30
61765;DHT22;50188;48.114;-1.388;2022-08-01T02:42:30;21.00;82.10
61765;DHT22;50188;48.114;-1.388;2022-08-01T02:44:57;21.10;81.80
61765;DHT22;50188;48.114;-1.388;2022-08-01T02:47:25;21.00;81.70
61765;DHT22;50188;48.114;-1.388;2022-08-01T02:49:54;21.10;81.50
61765;DHT22;50188;48.114;-1.388;2022-08-01T02:52:22;21.10;81.30
61765;DHT22;50188;48.114;-1.388;2022-08-01T02:54:49;21.00;81.20
61765;DHT22;50188;48.114;-1.388;2022-08-01T02:57:18;20.90;81.20
61765;DHT22;50188;48.114;-1.388;2022-08-01T02:59:46;21.00;81.00
61765;DHT22;50188;48.114;-1.388;2022-08-01T03:02:12;21.10;80.80
61765;DHT22;50188;48.114;-1.388;2022-08-01T03:04:40;21.10;80.60
61765;DHT22;50188;48.114;-1.388;2022-08-01T03:07:09;21.00;80.30
61765;DHT22;50188;48.114;-1.388;2022-08-01T03:09:40;21.10;80.30
61765;DHT22;50188;48.114;-1.388;2022-08-01T03:12:20;21.20;80.10
61765;DHT22;50188;48.114;-1.388;2022-08-01T03:14:50;21.10;80.00
61765;DHT22;50188;48.114;-1.388;2022-08-01T03:17:18;21.10;79.90
61765;DHT22;50188;48.114;-1.388;2022-08-01T03:19:47;21.20;79.70
61765;DHT22;50188;48.114;-1.388;2022-08-01T03:22:14;21.00;79.40
61765;DHT22;50188;48.114;-1.388;2022-08-01T03:24:43;21.00;79.40
61765;DHT22;50188;48.114;-1.388;2022-08-01T03:27:10;21.00;79.50
61765;DHT22;50188;48.114;-1.388;2022-08-01T03:29:37;20.90;79.40
61765;DHT22;50188;48.114;-1.388;2022-08-01T03:32:05;20.80;79.70
61765;DHT22;50188;48.114;-1.388;2022-08-01T03:34:32;20.80;79.80
61765;DHT22;50188;48.114;-1.388;2022-08-01T03:37:05;20.80;79.60
61765;DHT22;50188;48.114;-1.388;2022-08-01T03:39:37;20.90;79.40
61765;DHT22;50188;48.114;-1.388;2022-08-01T03:42:14;20.90;79.40
61765;DHT22;50188;48.114;-1.388;2022-08-01T03:44:41;21.00;79.50
61765;DHT22;50188;48.114;-1.388;2022-08-01T03:47:08;21.00;79.20
61765;DHT22;50188;48.114;-1.388;2022-08-01T03:49:43;21.00;79.20
61765;DHT22;50188;48.114;-1.388;2022-08-01T03:52:10;21.10;79.00
61765;DHT22;50188;48.114;-1.388;2022-08-01T03:54:41;20.90;79.20
61765;DHT22;50188;48.114;-1.388;2022-08-01T03:57:09;20.80;79.60
61765;DHT22;50188;48.114;-1.388;2022-08-01T03:59:35;20.80;79.80
61765;DHT22;50188;48.114;-1.388;2022-08-01T04:02:03;20.80;80.00
61765;DHT22;50188;48.114;-1.388;2022-08-01T04:04:30;20.80;80.00
61765;DHT22;50188;48.114;-1.388;2022-08-01T04:06:56;20.80;79.80
61765;DHT22;50188;48.114;-1.388;2022-08-01T04:09:22;20.90;79.40
61765;DHT22;50188;48.114;-1.388;2022-08-01T04:11:48;21.00;79.20
61765;DHT22;50188;48.114;-1.388;2022-08-01T04:14:14;21.10;78.70
61765;DHT22;50188;48.114;-1.388;2022-08-01T04:16:40;21.10;78.40
61765;DHT22;50188;48.114;-1.388;2022-08-01T04:19:06;21.10;78.10
61765;DHT22;50188;48.114;-1.388;2022-08-01T04:21:34;21.10;77.80
61765;DHT22;50188;48.114;-1.388;2022-08-01T04:24:09;21.10;77.80
61765;DHT22;50188;48.114;-1.388;2022-08-01T04:26:37;21.10;77.60
61765;DHT22;50188;48.114;-1.388;2022-08-01T04:29:04;21.20;77.50
61765;DHT22;50188;48.114;-1.388;2022-08-01T04:31:33;21.20;77.40
61765;DHT22;50188;48.114;-1.388;2022-08-01T04:34:02;21.10;77.50
61765;DHT22;50188;48.114;-1.388;2022-08-01T04:36:28;21.20;77.40
61765;DHT22;50188;48.114;-1.388;2022-08-01T04:38:59;21.20;77.40
61765;DHT22;50188;48.114;-1.388;2022-08-01T04:41:26;21.00;77.50
61765;DHT22;50188;48.114;-1.388;2022-08-01T04:43:52;21.10;77.80
61765;DHT22;50188;48.114;-1.388;2022-08-01T04:46:20;21.00;77.80
61765;DHT22;50188;48.114;-1.388;2022-08-01T04:48:47;21.00;77.90
61765;DHT22;50188;48.114;-1.388;2022-08-01T04:51:15;20.80;78.30
61765;DHT22;50188;48.114;-1.388;2022-08-01T04:53:41;20.60;78.60
61765;DHT22;50188;48.114;-1.388;2022-08-01T04:56:08;20.80;78.60
61765;DHT22;50188;48.114;-1.388;2022-08-01T04:58:34;20.90;78.50
61765;DHT22;50188;48.114;-1.388;2022-08-01T05:01:00;21.00;78.20
61765;DHT22;50188;48.114;-1.388;2022-08-01T05:03:25;21.10;78.00
61765;DHT22;50188;48.114;-1.388;2022-08-01T05:05:51;21.10;77.90
61765;DHT22;50188;48.114;-1.388;2022-08-01T05:08:17;21.00;77.60
61765;DHT22;50188;48.114;-1.388;2022-08-01T05:10:43;21.00;77.70
61765;DHT22;50188;48.114;-1.388;2022-08-01T05:13:09;21.00;77.90
61765;DHT22;50188;48.114;-1.388;2022-08-01T05:15:35;20.80;78.40
61765;DHT22;50188;48.114;-1.388;2022-08-01T05:18:05;20.90;78.70
61765;DHT22;50188;48.114;-1.388;2022-08-01T05:20:31;20.90;78.60
61765;DHT22;50188;48.114;-1.388;2022-08-01T05:22:57;21.00;78.20
61765;DHT22;50188;48.114;-1.388;2022-08-01T05:25:23;21.00;78.20
61765;DHT22;50188;48.114;-1.388;2022-08-01T05:27:49;21.00;78.10
61765;DHT22;50188;48.114;-1.388;2022-08-01T05:30:15;21.00;78.10
61765;DHT22;50188;48.114;-1.388;2022-08-01T05:32:41;21.00;77.90
61765;DHT22;50188;48.114;-1.388;2022-08-01T05:35:13;21.00;77.50
61765;DHT22;50188;48.114;-1.388;2022-08-01T05:37:39;21.00;77.70
61765;DHT22;50188;48.114;-1.388;2022-08-01T05:40:05;21.10;77.60
61765;DHT22;50188;48.114;-1.388;2022-08-01T05:42:31;21.00;77.70
61765;DHT22;50188;48.114;-1.388;2022-08-01T05:44:57;21.10;77.50
61765;DHT22;50188;48.114;-1.388;2022-08-01T05:47:23;21.10;77.50
61765;DHT22;50188;48.114;-1.388;2022-08-01T05:49:50;21.10;77.30
61765;DHT22;50188;48.114;-1.388;2022-08-01T05:52:16;21.10;77.10
61765;DHT22;50188;48.114;-1.388;2022-08-01T05:54:42;21.00;77.00
61765;DHT22;50188;48.114;-1.388;2022-08-01T05:57:08;21.10;76.90
61765;DHT22;50188;48.114;-1.388;2022-08-01T05:59:33;21.00;77.00
61765;DHT22;50188;48.114;-1.388;2022-08-01T06:02:00;21.00;77.20
61765;DHT22;50188;48.114;-1.388;2022-08-01T06:04:26;21.10;77.00
61765;DHT22;50188;48.114;-1.388;2022-08-01T06:06:51;21.20;76.70
61765;DHT22;50188;48.114;-1.388;2022-08-01T06:09:17;21.10;76.40
61765;DHT22;50188;48.114;-1.388;2022-08-01T06:11:43;21.30;76.30
61765;DHT22;50188;48.114;-1.388;2022-08-01T06:14:09;21.20;76.20
61765;DHT22;50188;48.114;-1.388;2022-08-01T06:16:35;21.20;76.20
61765;DHT22;50188;48.114;-1.388;2022-08-01T06:19:03;21.30;76.50
61765;DHT22;50188;48.114;-1.388;2022-08-01T06:21:29;21.40;76.00
61765;DHT22;50188;48.114;-1.388;2022-08-01T06:23:55;21.50;75.40
61765;DHT22;50188;48.114;-1.388;2022-08-01T06:26:21;21.70;75.00
61765;DHT22;50188;48.114;-1.388;2022-08-01T06:28:47;21.60;76.00
61765;DHT22;50188;48.114;-1.388;2022-08-01T06:31:12;21.60;75.00
61765;DHT22;50188;48.114;-1.388;2022-08-01T06:33:41;21.70;74.80
61765;DHT22;50188;48.114;-1.388;2022-08-01T06:36:06;21.80;74.30
61765;DHT22;50188;48.114;-1.388;2022-08-01T06:38:32;21.90;74.20
61765;DHT22;50188;48.114;-1.388;2022-08-01T06:46:49;22.20;73.60
61765;DHT22;50188;48.114;-1.388;2022-08-01T06:49:15;22.20;73.20
61765;DHT22;50188;48.114;-1.388;2022-08-01T06:51:41;22.40;72.30
61765;DHT22;50188;48.114;-1.388;2022-08-01T06:54:07;22.40;72.20
61765;DHT22;50188;48.114;-1.388;2022-08-01T06:56:33;22.50;71.80
61765;DHT22;50188;48.114;-1.388;2022-08-01T06:59:04;22.50;71.80
61765;DHT22;50188;48.114;-1.388;2022-08-01T07:01:29;22.60;71.70
61765;DHT22;50188;48.114;-1.388;2022-08-01T07:03:56;22.70;70.90
61765;DHT22;50188;48.114;-1.388;2022-08-01T07:06:23;22.80;71.40
61765;DHT22;50188;48.114;-1.388;2022-08-01T07:08:49;22.90;71.10
61765;DHT22;50188;48.114;-1.388;2022-08-01T07:11:15;23.10;70.10
61765;DHT22;50188;48.114;-1.388;2022-08-01T07:13:41;23.00;69.90
61765;DHT22;50188;48.114;-1.388;2022-08-01T07:16:07;23.10;69.60
61765;DHT22;50188;48.114;-1.388;2022-08-01T07:18:33;22.90;69.40
61765;DHT22;50188;48.114;-1.388;2022-08-01T07:20:59;23.10;69.60
61765;DHT22;50188;48.114;-1.388;2022-08-01T07:23:25;23.10;69.50
61765;DHT22;50188;48.114;-1.388;2022-08-01T07:25:51;23.20;69.70
61765;DHT22;50188;48.114;-1.388;2022-08-01T07:28:18;23.30;69.30
61765;DHT22;50188;48.114;-1.388;2022-08-01T07:30:44;23.30;69.10
61765;DHT22;50188;48.114;-1.388;2022-08-01T07:33:10;23.10;69.10
61765;DHT22;50188;48.114;-1.388;2022-08-01T07:35:36;23.10;69.30
61765;DHT22;50188;48.114;-1.388;2022-08-01T07:38:05;23.10;69.60
61765;DHT22;50188;48.114;-1.388;2022-08-01T07:40:31;23.00;69.70
61765;DHT22;50188;48.114;-1.388;2022-08-01T07:42:57;23.30;69.50
61765;DHT22;50188;48.114;-1.388;2022-08-01T07:45:23;23.40;69.30
61765;DHT22;50188;48.114;-1.388;2022-08-01T07:47:49;23.40;68.90
61765;DHT22;50188;48.114;-1.388;2022-08-01T07:50:15;23.30;68.90
61765;DHT22;50188;48.114;-1.388;2022-08-01T07:52:43;23.40;68.20
61765;DHT22;50188;48.114;-1.388;2022-08-01T07:55:10;23.10;68.20
61765;DHT22;50188;48.114;-1.388;2022-08-01T07:57:37;23.30;68.10
61765;DHT22;50188;48.114;-1.388;2022-08-01T08:00:04;23.30;67.90
61765;DHT22;50188;48.114;-1.388;2022-08-01T08:02:31;23.50;67.40
61765;DHT22;50188;48.114;-1.388;2022-08-01T08:04:57;23.50;66.90
61765;DHT22;50188;48.114;-1.388;2022-08-01T08:07:23;23.60;66.90
61765;DHT22;50188;48.114;-1.388;2022-08-01T08:09:49;23.60;66.70
61765;DHT22;50188;48.114;-1.388;2022-08-01T08:12:15;23.50;66.50
61765;DHT22;50188;48.114;-1.388;2022-08-01T08:14:41;23.20;66.90
61765;DHT22;50188;48.114;-1.388;2022-08-01T08:17:06;23.10;67.30
61765;DHT22;50188;48.114;-1.388;2022-08-01T08:19:33;23.30;67.40
61765;DHT22;50188;48.114;-1.388;2022-08-01T08:21:59;23.40;67.90
61765;DHT22;50188;48.114;-1.388;2022-08-01T08:24:26;23.40;68.00
61765;DHT22;50188;48.114;-1.388;2022-08-01T08:26:57;23.20;68.60
61765;DHT22;50188;48.114;-1.388;2022-08-01T08:29:24;22.90;69.00
61765;DHT22;50188;48.114;-1.388;2022-08-01T08:31:52;23.00;69.50
61765;DHT22;50188;48.114;-1.388;2022-08-01T08:34:19;23.00;69.20
61765;DHT22;50188;48.114;-1.388;2022-08-01T08:36:45;23.10;69.10
61765;DHT22;50188;48.114;-1.388;2022-08-01T08:39:11;23.10;68.90
61765;DHT22;50188;48.114;-1.388;2022-08-01T08:41:37;23.30;68.60
61765;DHT22;50188;48.114;-1.388;2022-08-01T08:44:04;23.30;67.70
61765;DHT22;50188;48.114;-1.388;2022-08-01T08:46:31;23.40;68.00
61765;DHT22;50188;48.114;-1.388;2022-08-01T08:48:58;23.60;67.70
61765;DHT22;50188;48.114;-1.388;2022-08-01T08:51:26;23.80;66.40
61765;DHT22;50188;48.114;-1.388;2022-08-01T08:53:55;24.30;65.30
61765;DHT22;50188;48.114;-1.388;2022-08-01T08:56:21;24.70;63.70
61765;DHT22;50188;48.114;-1.388;2022-08-01T08:58:48;25.50;61.50
61765;DHT22;50188;48.114;-1.388;2022-08-01T09:01:15;26.00;60.20
61765;DHT22;50188;48.114;-1.388;2022-08-01T09:03:43;26.60;57.40
61765;DHT22;50188;48.114;-1.388;2022-08-01T09:06:09;26.80;55.50
61765;DHT22;50188;48.114;-1.388;2022-08-01T09:08:35;26.70;54.40
61765;DHT22;50188;48.114;-1.388;2022-08-01T09:11:01;26.60;54.70
61765;DHT22;50188;48.114;-1.388;2022-08-01T09:13:26;26.30;55.30
61765;DHT22;50188;48.114;-1.388;2022-08-01T09:15:54;26.10;55.80
61765;DHT22;50188;48.114;-1.388;2022-08-01T09:18:38;26.40;56.00
61765;DHT22;50188;48.114;-1.388;2022-08-01T09:21:12;26.40;55.40
61765;DHT22;50188;48.114;-1.388;2022-08-01T09:23:42;26.40;56.00
61765;DHT22;50188;48.114;-1.388;2022-08-01T09:26:10;26.00;56.50
61765;DHT22;50188;48.114;-1.388;2022-08-01T09:28:37;26.30;56.20
61765;DHT22;50188;48.114;-1.388;2022-08-01T09:31:15;26.10;56.00
61765;DHT22;50188;48.114;-1.388;2022-08-01T09:33:54;26.00;56.00
61765;DHT22;50188;48.114;-1.388;2022-08-01T09:36:23;25.40;56.30
61765;DHT22;50188;48.114;-1.388;2022-08-01T09:38:49;25.70;57.50
61765;DHT22;50188;48.114;-1.388;2022-08-01T09:41:15;26.00;56.50
61765;DHT22;50188;48.114;-1.388;2022-08-01T09:43:48;26.00;56.20
61765;DHT22;50188;48.114;-1.388;2022-08-01T09:46:15;26.10;56.10
61765;DHT22;50188;48.114;-1.388;2022-08-01T09:48:55;26.40;55.60
61765;DHT22;50188;48.114;-1.388;2022-08-01T09:51:36;26.20;54.80
61765;DHT22;50188;48.114;-1.388;2022-08-01T09:54:03;26.00;55.50
61765;DHT22;50188;48.114;-1.388;2022-08-01T09:56:38;25.80;55.90
61765;DHT22;50188;48.114;-1.388;2022-08-01T09:59:04;26.10;56.60
61765;DHT22;50188;48.114;-1.388;2022-08-01T10:01:43;26.40;56.20
61765;DHT22;50188;48.114;-1.388;2022-08-01T10:04:15;26.70;54.90
61765;DHT22;50188;48.114;-1.388;2022-08-01T10:06:44;26.80;54.50
61765;DHT22;50188;48.114;-1.388;2022-08-01T10:09:12;26.40;54.30
61765;DHT22;50188;48.114;-1.388;2022-08-01T10:11:39;26.50;54.80
61765;DHT22;50188;48.114;-1.388;2022-08-01T10:14:06;26.80;54.60
61765;DHT22;50188;48.114;-1.388;2022-08-01T10:16:34;27.20;53.20
61765;DHT22;50188;48.114;-1.388;2022-08-01T10:19:02;27.30;52.50
61765;DHT22;50188;48.114;-1.388;2022-08-01T10:21:32;27.70;51.90
61765;DHT22;50188;48.114;-1.388;2022-08-01T10:23:58;27.30;51.80
61765;DHT22;50188;48.114;-1.388;2022-08-01T10:26:26;27.50;51.70
61765;DHT22;50188;48.114;-1.388;2022-08-01T10:28:54;27.20;51.10
61765;DHT22;50188;48.114;-1.388;2022-08-01T10:31:19;26.80;52.20
61765;DHT22;50188;48.114;-1.388;2022-08-01T10:33:45;26.40;52.80
61765;DHT22;50188;48.114;-1.388;2022-08-01T10:36:12;26.20;53.50
61765;DHT22;50188;48.114;-1.388;2022-08-01T10:38:37;26.00;54.20
61765;DHT22;50188;48.114;-1.388;2022-08-01T10:41:05;25.80;54.30
61765;DHT22;50188;48.114;-1.388;2022-08-01T10:43:31;26.10;54.90
61765;DHT22;50188;48.114;-1.388;2022-08-01T10:45:57;25.90;55.20
61765;DHT22;50188;48.114;-1.388;2022-08-01T10:48:49;26.30;55.80
61765;DHT22;50188;48.114;-1.388;2022-08-01T10:51:23;26.60;55.10
61765;DHT22;50188;48.114;-1.388;2022-08-01T10:53:53;26.40;54.50
61765;DHT22;50188;48.114;-1.388;2022-08-01T10:56:19;26.40;54.80
61765;DHT22;50188;48.114;-1.388;2022-08-01T10:58:47;26.30;54.50
61765;DHT22;50188;48.114;-1.388;2022-08-01T11:01:28;26.40;54.10
61765;DHT22;50188;48.114;-1.388;2022-08-01T11:04:03;26.70;53.60
61765;DHT22;50188;48.114;-1.388;2022-08-01T11:06:42;26.80;53.20
61765;DHT22;50188;48.114;-1.388;2022-08-01T11:09:22;26.80;53.20
61765;DHT22;50188;48.114;-1.388;2022-08-01T11:11:59;26.70;52.80
61765;DHT22;50188;48.114;-1.388;2022-08-01T11:14:26;26.80;53.40
61765;DHT22;50188;48.114;-1.388;2022-08-01T11:16:51;26.90;53.40
61765;DHT22;50188;48.114;-1.388;2022-08-01T11:19:17;27.20;52.80
61765;DHT22;50188;48.114;-1.388;2022-08-01T11:21:58;27.30;52.20
61765;DHT22;50188;48.114;-1.388;2022-08-01T11:24:55;27.70;51.70
61765;DHT22;50188;48.114;-1.388;2022-08-01T11:27:30;28.00;50.30
61765;DHT22;50188;48.114;-1.388;2022-08-01T11:30:21;27.60;51.10
61765;DHT22;50188;48.114;-1.388;2022-08-01T11:32:49;27.40;50.80
61765;DHT22;50188;48.114;-1.388;2022-08-01T11:35:23;27.50;51.40
61765;DHT22;50188;48.114;-1.388;2022-08-01T11:37:51;27.80;51.30
61765;DHT22;50188;48.114;-1.388;2022-08-01T11:40:20;28.80;50.40
61765;DHT22;50188;48.114;-1.388;2022-08-01T11:42:47;29.40;48.50
61765;DHT22;50188;48.114;-1.388;2022-08-01T11:45:13;29.20;45.70
61765;DHT22;50188;48.114;-1.388;2022-08-01T11:47:47;29.40;45.60
61765;DHT22;50188;48.114;-1.388;2022-08-01T11:50:32;29.20;46.20
61765;DHT22;50188;48.114;-1.388;2022-08-01T11:52:59;28.60;46.50
61765;DHT22;50188;48.114;-1.388;2022-08-01T11:55:27;29.50;47.50
61765;DHT22;50188;48.114;-1.388;2022-08-01T12:00:41;30.50;44.00
61765;DHT22;50188;48.114;-1.388;2022-08-01T12:03:08;30.40;42.70
61765;DHT22;50188;48.114;-1.388;2022-08-01T12:05:35;30.00;43.30
61765;DHT22;50188;48.114;-1.388;2022-08-01T12:08:03;30.20;43.40
61765;DHT22;50188;48.114;-1.388;2022-08-01T12:10:33;30.30;43.40
61765;DHT22;50188;48.114;-1.388;2022-08-01T12:13:04;31.30;42.00
61765;DHT22;50188;48.114;-1.388;2022-08-01T12:15:38;31.40;41.40
61765;DHT22;50188;48.114;-1.388;2022-08-01T12:18:05;30.30;41.40
61765;DHT22;50188;48.114;-1.388;2022-08-01T12:20:34;30.50;41.70
61765;DHT22;50188;48.114;-1.388;2022-08-01T12:23:03;30.80;41.60
61765;DHT22;50188;48.114;-1.388;2022-08-01T12:25:34;31.20;41.60
61765;DHT22;50188;48.114;-1.388;2022-08-01T12:28:05;31.20;41.20
61765;DHT22;50188;48.114;-1.388;2022-08-01T12:30:32;30.80;41.30
61765;DHT22;50188;48.114;-1.388;2022-08-01T12:33:01;30.40;42.00
61765;DHT22;50188;48.114;-1.388;2022-08-01T12:35:28;30.70;42.40
61765;DHT22;50188;48.114;-1.388;2022-08-01T12:38:07;30.90;41.70
61765;DHT22;50188;48.114;-1.388;2022-08-01T12:40:41;29.90;41.10
61765;DHT22;50188;48.114;-1.388;2022-08-01T12:43:07;30.20;42.20
61765;DHT22;50188;48.114;-1.388;2022-08-01T12:45:38;29.50;42.80
61765;DHT22;50188;48.114;-1.388;2022-08-01T12:48:10;29.00;43.20
61765;DHT22;50188;48.114;-1.388;2022-08-01T12:50:42;29.70;43.60
61765;DHT22;50188;48.114;-1.388;2022-08-01T12:53:09;30.20;42.70
61765;DHT22;50188;48.114;-1.388;2022-08-01T12:55:46;30.50;43.40
61765;DHT22;50188;48.114;-1.388;2022-08-01T12:58:14;30.00;42.30
61765;DHT22;50188;48.114;-1.388;2022-08-01T13:00:44;29.90;42.40
61765;DHT22;50188;48.114;-1.388;2022-08-01T13:03:12;29.90;43.00
61765;DHT22;50188;48.114;-1.388;2022-08-01T13:05:48;30.40;42.20
61765;DHT22;50188;48.114;-1.388;2022-08-01T13:08:17;30.50;41.80
61765;DHT22;50188;48.114;-1.388;2022-08-01T13:10:43;30.70;41.10
61765;DHT22;50188;48.114;-1.388;2022-08-01T13:13:10;30.30;41.30
61765;DHT22;50188;48.114;-1.388;2022-08-01T13:15:38;29.40;42.30
61765;DHT22;50188;48.114;-1.388;2022-08-01T13:18:25;29.20;44.80
61765;DHT22;50188;48.114;-1.388;2022-08-01T13:21:12;29.40;44.30
61765;DHT22;50188;48.114;-1.388;2022-08-01T13:23:39;29.80;43.20
61765;DHT22;50188;48.114;-1.388;2022-08-01T13:26:06;29.60;43.30
61765;DHT22;50188;48.114;-1.388;2022-08-01T13:28:33;29.60;43.70
61765;DHT22;50188;48.114;-1.388;2022-08-01T13:31:01;29.10;43.90
61765;DHT22;50188;48.114;-1.388;2022-08-01T13:33:42;29.00;45.30
61765;DHT22;50188;48.114;-1.388;2022-08-01T13:36:09;29.00;44.90
61765;DHT22;50188;48.114;-1.388;2022-08-01T13:38:35;29.00;45.10
61765;DHT22;50188;48.114;-1.388;2022-08-01T13:41:21;29.10;45.20
61765;DHT22;50188;48.114;-1.388;2022-08-01T13:43:47;28.80;45.90
61765;DHT22;50188;48.114;-1.388;2022-08-01T13:46:14;28.80;46.60
61765;DHT22;50188;48.114;-1.388;2022-08-01T13:48:42;28.70;46.30
61765;DHT22;50188;48.114;-1.388;2022-08-01T13:51:11;29.10;46.10
61765;DHT22;50188;48.114;-1.388;2022-08-01T13:53:37;28.80;45.20
61765;DHT22;50188;48.114;-1.388;2022-08-01T13:56:03;28.20;45.40
61765;DHT22;50188;48.114;-1.388;2022-08-01T13:58:30;27.70;47.20
61765;DHT22;50188;48.114;-1.388;2022-08-01T14:00:56;27.50;48.20
61765;DHT22;50188;48.114;-1.388;2022-08-01T14:03:22;27.30;48.50
61765;DHT22;50188;48.114;-1.388;2022-08-01T14:05:48;27.30;48.90
61765;DHT22;50188;48.114;-1.388;2022-08-01T14:08:14;27.40;50.50
61765;DHT22;50188;48.114;-1.388;2022-08-01T14:10:40;28.00;50.30
61765;DHT22;50188;48.114;-1.388;2022-08-01T14:13:06;27.70;49.70
61765;DHT22;50188;48.114;-1.388;2022-08-01T14:15:32;27.80;48.80
61765;DHT22;50188;48.114;-1.388;2022-08-01T14:17:58;28.00;48.40
61765;DHT22;50188;48.114;-1.388;2022-08-01T14:20:25;28.00;48.60
61765;DHT22;50188;48.114;-1.388;2022-08-01T14:22:51;27.70;48.30
61765;DHT22;50188;48.114;-1.388;2022-08-01T14:25:17;27.80;49.00
61765;DHT22;50188;48.114;-1.388;2022-08-01T14:27:44;27.80;48.80
61765;DHT22;50188;48.114;-1.388;2022-08-01T14:30:11;27.90;49.20
61765;DHT22;50188;48.114;-1.388;2022-08-01T14:32:37;28.10;48.90
61765;DHT22;50188;48.114;-1.388;2022-08-01T14:35:04;28.00;47.80
61765;DHT22;50188;48.114;-1.388;2022-08-01T14:37:32;28.20;48.10
61765;DHT22;50188;48.114;-1.388;2022-08-01T14:39:59;28.00;47.40
61765;DHT22;50188;48.114;-1.388;2022-08-01T14:42:26;27.70;47.30
61765;DHT22;50188;48.114;-1.388;2022-08-01T14:44:52;27.60;48.20
61765;DHT22;50188;48.114;-1.388;2022-08-01T14:47:17;27.50;49.60
61765;DHT22;50188;48.114;-1.388;2022-08-01T14:49:43;27.30;50.10
61765;DHT22;50188;48.114;-1.388;2022-08-01T14:52:09;27.40;49.80
61765;DHT22;50188;48.114;-1.388;2022-08-01T14:54:35;27.60;50.10
61765;DHT22;50188;48.114;-1.388;2022-08-01T14:57:01;27.40;49.10
61765;DHT22;50188;48.114;-1.388;2022-08-01T14:59:27;27.10;49.30
61765;DHT22;50188;48.114;-1.388;2022-08-01T15:01:53;27.30;50.00
61765;DHT22;50188;48.114;-1.388;2022-08-01T15:04:19;27.20;49.70
61765;DHT22;50188;48.114;-1.388;2022-08-01T15:06:50;27.20;49.70
61765;DHT22;50188;48.114;-1.388;2022-08-01T15:09:16;27.40;49.80
61765;DHT22;50188;48.114;-1.388;2022-08-01T15:11:42;27.40;49.90
61765;DHT22;50188;48.114;-1.388;2022-08-01T15:14:11;27.40;49.00
61765;DHT22;50188;48.114;-1.388;2022-08-01T15:16:57;27.30;48.70
61765;DHT22;50188;48.114;-1.388;2022-08-01T15:19:22;27.40;49.00
61765;DHT22;50188;48.114;-1.388;2022-08-01T15:21:48;27.30;48.70
61765;DHT22;50188;48.114;-1.388;2022-08-01T15:24:14;27.50;49.30
61765;DHT22;50188;48.114;-1.388;2022-08-01T15:26:40;27.40;49.00
61765;DHT22;50188;48.114;-1.388;2022-08-01T15:29:06;27.30;49.30
61765;DHT22;50188;48.114;-1.388;2022-08-01T15:31:32;27.10;49.70
61765;DHT22;50188;48.114;-1.388;2022-08-01T15:33:58;27.20;50.20
61765;DHT22;50188;48.114;-1.388;2022-08-01T15:36:24;27.10;49.50